createdAt,value
2022-11-02T00:03:00.835Z,5.35
2022-11-02T00:07:02.933Z,6.93
2022-11-02T00:11:05.108Z,6.63
2022-11-02T00:15:07.903Z,5.43
2022-11-02T00:19:10.295Z,7.90
2022-11-02T00:23:13.927Z,6.07
2022-11-02T00:27:15.980Z,5.82
2022-11-02T00:31:18.026Z,5.40
2022-11-02T00:35:20.078Z,7.68
2022-11-02T00:39:22.199Z,5.05
2022-11-02T00:43:24.277Z,8.77
2022-11-02T00:47:26.299Z,7.88
2022-11-02T00:51:29.705Z,9.50
2022-11-02T00:55:31.776Z,9.68
2022-11-02T00:59:37.897Z,7.68
2022-11-02T01:03:41.089Z,8.63
2022-11-02T01:07:43.088Z,7.32
2022-11-02T01:11:45.226Z,7.90
2022-11-02T01:15:49.735Z,7.95
2022-11-02T01:19:51.765Z,4.03
2022-11-02T01:23:55.470Z,8.48
2022-11-02T01:27:57.450Z,8.23
2022-11-02T01:31:59.444Z,8.98
2022-11-02T01:36:06.230Z,4.75
2022-11-02T01:40:08.825Z,7.93
2022-11-02T01:44:33.906Z,9.43
2022-11-02T01:48:43.372Z,7.45
2022-11-02T01:52:45.420Z,7.55
2022-11-02T01:56:52.381Z,6.45
2022-11-02T02:00:55.038Z,10.48
2022-11-02T02:05:06.073Z,8.25
2022-11-02T02:09:10.195Z,4.95
2022-11-02T02:13:13.751Z,8.55
2022-11-02T02:17:33.267Z,6.63
2022-11-02T02:21:54.429Z,7.93
2022-11-02T02:26:41.159Z,8.63
2022-11-02T02:30:58.811Z,9.50
2022-11-02T02:39:43.134Z,7.15
2022-11-02T02:43:57.569Z,6.60
2022-11-02T02:48:20.959Z,6.90
2022-11-02T02:52:26.919Z,5.53
2022-11-02T02:56:36.284Z,8.88
2022-11-02T03:00:39.512Z,9.73
2022-11-02T03:04:41.712Z,6.25
2022-11-02T03:08:52.918Z,6.40
2022-11-02T03:13:05.835Z,7.88
2022-11-02T03:17:15.552Z,4.68
2022-11-02T03:21:38.184Z,8.00
2022-11-02T03:26:04.832Z,7.35
2022-11-02T03:30:19.441Z,6.20
2022-11-02T03:34:52.387Z,5.97
2022-11-02T03:39:01.971Z,6.20
2022-11-02T03:43:05.628Z,7.07
2022-11-02T03:47:12.532Z,6.60
2022-11-02T03:51:17.923Z,8.55
2022-11-02T03:55:26.049Z,6.03
2022-11-02T03:59:32.611Z,5.47
2022-11-02T04:03:41.097Z,6.70
2022-11-02T04:08:07.516Z,5.32
2022-11-02T04:12:28.421Z,7.55
2022-11-02T04:16:30.856Z,7.18
2022-11-02T04:20:35.337Z,5.68
2022-11-02T04:24:56.081Z,10.95
2022-11-02T04:28:59.322Z,5.32
2022-11-02T04:33:20.168Z,8.63
2022-11-02T04:37:47.383Z,6.28
2022-11-02T04:41:49.558Z,8.15
2022-11-02T04:46:05.494Z,5.45
2022-11-02T04:50:09.692Z,4.57
2022-11-02T04:54:11.819Z,5.93
2022-11-02T04:58:15.473Z,5.63
2022-11-02T05:02:18.141Z,6.97
2022-11-02T05:06:22.349Z,5.40
2022-11-02T05:10:25.339Z,6.80
2022-11-02T05:14:28.298Z,6.93
2022-11-02T05:18:31.563Z,8.30
2022-11-02T05:22:33.770Z,6.82
2022-11-02T05:26:35.931Z,8.98
2022-11-02T05:30:38.516Z,7.63
2022-11-02T05:34:41.575Z,9.88
2022-11-02T05:38:44.657Z,6.72
2022-11-02T05:42:47.655Z,5.35
2022-11-02T05:46:49.695Z,7.38
2022-11-02T05:50:59.179Z,4.82
2022-11-02T05:55:01.270Z,11.75
2022-11-02T05:59:03.386Z,7.57
2022-11-02T06:03:05.787Z,5.50
2022-11-02T06:07:08.069Z,7.47
2022-11-02T06:11:12.428Z,6.43
2022-11-02T06:15:14.493Z,7.97
2022-11-02T06:19:16.640Z,4.47
2022-11-02T06:23:18.749Z,6.82
2022-11-02T06:27:20.801Z,4.43
2022-11-02T06:31:23.664Z,5.65
2022-11-02T06:35:25.733Z,9.27
2022-11-02T06:39:27.802Z,8.25
2022-11-02T06:43:30.300Z,8.18
2022-11-02T06:47:33.882Z,11.52
2022-11-02T06:51:35.900Z,5.57
2022-11-02T06:55:38.135Z,6.88
2022-11-02T06:59:40.152Z,4.35
2022-11-02T07:03:42.243Z,7.65
2022-11-02T07:07:44.268Z,7.00
2022-11-02T07:11:46.410Z,7.72
2022-11-02T07:15:52.104Z,6.38
2022-11-02T07:19:54.130Z,5.40
2022-11-02T07:23:56.259Z,6.28
2022-11-02T07:28:02.226Z,5.75
2022-11-02T07:32:04.565Z,8.82
2022-11-02T07:36:06.873Z,6.18
2022-11-02T07:40:10.849Z,6.97
2022-11-02T07:44:12.871Z,6.80
2022-11-02T07:48:28.416Z,3.97
2022-11-02T07:52:30.398Z,7.05
2022-11-02T07:56:32.370Z,6.25
2022-11-02T08:00:39.313Z,9.68
2022-11-02T08:04:44.788Z,12.45
2022-11-02T08:08:47.279Z,6.80
2022-11-02T08:12:49.474Z,7.25
2022-11-02T08:16:52.392Z,5.03
2022-11-02T08:20:59.123Z,6.65
2022-11-02T08:25:01.199Z,3.70
2022-11-02T08:29:03.314Z,7.50
2022-11-02T08:33:07.879Z,5.10
2022-11-02T08:37:09.951Z,9.25
2022-11-02T08:41:11.959Z,9.05
2022-11-02T08:45:14.163Z,7.88
2022-11-02T08:49:18.668Z,8.50
2022-11-02T08:53:20.795Z,7.90
2022-11-02T08:57:22.808Z,6.13
2022-11-02T09:01:24.885Z,5.18
2022-11-02T09:05:29.086Z,9.30
2022-11-02T09:09:31.168Z,9.32
2022-11-02T09:13:33.217Z,6.60
2022-11-02T09:17:35.256Z,6.13
2022-11-02T09:21:37.647Z,8.10
2022-11-02T09:25:39.694Z,5.53
2022-11-02T09:29:41.689Z,6.18
2022-11-02T09:33:43.695Z,4.60
2022-11-02T09:37:49.982Z,3.17
2022-11-02T09:46:16.682Z,6.43
2022-11-02T09:50:42.126Z,7.20
2022-11-02T09:54:49.370Z,5.82
2022-11-02T09:59:02.049Z,6.22
2022-11-02T10:03:16.361Z,6.82
2022-11-02T10:07:22.725Z,4.78
2022-11-02T10:11:40.962Z,5.03
2022-11-02T10:15:54.463Z,5.72
2022-11-02T10:19:59.913Z,5.65
2022-11-02T10:24:22.367Z,6.60
2022-11-02T10:28:29.182Z,8.60
2022-11-02T10:32:35.203Z,6.90
2022-11-02T10:36:37.220Z,4.85
2022-11-02T10:40:53.786Z,3.15
2022-11-02T10:45:17.754Z,6.32
2022-11-02T10:49:19.723Z,8.15
2022-11-02T10:57:43.959Z,10.77
2022-11-02T11:02:04.271Z,5.97
2022-11-02T11:06:06.443Z,4.40
2022-11-02T11:10:15.305Z,4.10
2022-11-02T11:23:25.135Z,7.80
2022-11-02T11:27:27.177Z,5.25
2022-11-02T11:31:30.840Z,5.03
2022-11-02T11:35:39.281Z,6.50
2022-11-02T11:39:45.287Z,5.60
2022-11-02T11:43:48.503Z,4.70
2022-11-02T11:47:54.212Z,5.13
2022-11-02T11:51:58.179Z,4.05
2022-11-02T11:56:00.830Z,5.10
2022-11-02T12:00:27.493Z,5.15
2022-11-02T12:04:37.379Z,3.72
2022-11-02T12:09:03.052Z,7.32
2022-11-02T12:13:15.525Z,6.35
2022-11-02T12:17:36.367Z,4.88
2022-11-02T12:21:48.815Z,5.38
2022-11-02T12:26:05.899Z,5.38
2022-11-02T12:30:20.140Z,6.15
2022-11-02T12:35:23.169Z,6.40
2022-11-02T12:39:41.813Z,4.07
2022-11-02T12:43:49.448Z,4.72
2022-11-02T12:47:59.014Z,5.00
2022-11-02T12:52:19.875Z,4.90
2022-11-02T12:56:39.279Z,5.88
2022-11-02T13:00:45.312Z,4.68
2022-11-02T13:05:08.047Z,7.65
2022-11-02T13:09:12.887Z,2.50
2022-11-02T13:13:19.554Z,3.67
2022-11-02T13:17:37.100Z,5.75
2022-11-02T13:21:46.521Z,4.75
2022-11-02T13:25:54.077Z,3.75
2022-11-02T13:30:01.630Z,2.50
2022-11-02T13:34:10.418Z,4.18
2022-11-02T13:38:12.354Z,5.65
2022-11-02T13:42:41.683Z,4.30
2022-11-02T13:46:57.753Z,3.20
2022-11-02T13:51:07.038Z,3.08
2022-11-02T13:55:15.949Z,6.38
2022-11-02T13:59:26.049Z,1.70
2022-11-02T14:03:46.800Z,3.83
2022-11-02T14:07:50.209Z,3.83
2022-11-02T14:12:22.186Z,6.55
2022-11-02T14:16:46.590Z,2.63
2022-11-02T14:20:48.639Z,6.35
2022-11-02T14:24:53.835Z,4.57
2022-11-02T14:28:56.284Z,3.28
2022-11-02T14:33:14.948Z,3.20
2022-11-02T14:37:35.851Z,8.00
2022-11-02T14:42:04.279Z,3.20
2022-11-02T14:46:41.829Z,6.63
2022-11-02T14:51:00.692Z,7.40
2022-11-02T14:55:17.980Z,4.15
2022-11-02T14:59:22.344Z,8.05
2022-11-02T15:03:24.315Z,5.35
2022-11-02T15:07:36.676Z,5.00
2022-11-02T15:11:56.973Z,5.47
2022-11-02T15:15:58.924Z,8.25
2022-11-02T15:20:09.921Z,6.63
2022-11-02T15:24:17.512Z,5.53
2022-11-02T15:28:24.046Z,5.88
2022-11-02T15:32:29.923Z,5.15
2022-11-02T15:36:43.461Z,7.53
2022-11-02T15:41:02.900Z,6.28
2022-11-02T15:50:08.226Z,5.72
2022-11-02T15:54:23.423Z,5.80
2022-11-02T15:58:33.360Z,4.63
2022-11-02T16:02:53.952Z,5.20
2022-11-02T16:06:56.046Z,5.88
2022-11-02T16:11:09.990Z,5.78
2022-11-02T16:15:14.980Z,4.32
2022-11-02T16:19:21.568Z,5.63
2022-11-02T16:23:26.780Z,7.00
2022-11-02T16:27:28.842Z,5.72
2022-11-02T16:31:31.444Z,5.55
2022-11-02T16:35:34.067Z,3.63
2022-11-02T16:39:39.537Z,6.15
2022-11-02T16:43:45.743Z,6.22
2022-11-02T16:47:48.119Z,7.20
2022-11-02T16:51:58.367Z,6.00
2022-11-02T16:56:30.663Z,4.43
2022-11-02T17:00:33.101Z,6.50
2022-11-02T17:04:40.729Z,7.78
2022-11-02T17:08:45.456Z,6.70
2022-11-02T17:12:48.628Z,7.47
2022-11-02T17:17:06.670Z,6.70
2022-11-02T17:21:30.223Z,7.43
2022-11-02T17:25:37.571Z,9.07
2022-11-02T17:33:43.633Z,10.32
2022-11-02T17:37:45.761Z,5.82
2022-11-02T17:42:15.118Z,5.82
2022-11-02T17:46:17.221Z,7.10
2022-11-02T17:50:19.560Z,7.50
2022-11-02T17:54:21.720Z,8.48
2022-11-02T17:58:23.783Z,7.35
2022-11-02T18:02:25.948Z,5.97
2022-11-02T18:06:29.694Z,7.45
2022-11-02T18:10:34.482Z,9.27
2022-11-02T18:14:36.700Z,7.55
2022-11-02T18:18:38.740Z,19.73
2022-11-02T18:22:41.228Z,12.65
2022-11-02T18:26:46.793Z,8.00
2022-11-02T18:30:49.169Z,7.13
2022-11-02T18:34:51.155Z,6.63
2022-11-02T18:38:53.230Z,6.50
2022-11-02T18:42:55.236Z,10.60
2022-11-02T18:46:59.210Z,8.90
2022-11-02T18:51:04.518Z,6.75
2022-11-02T18:55:07.050Z,6.22
2022-11-02T18:59:09.209Z,6.32
2022-11-02T19:03:11.499Z,6.63
2022-11-02T19:07:32.326Z,11.45
2022-11-02T19:11:35.580Z,8.68
2022-11-02T19:15:42.505Z,5.82
2022-11-02T19:19:46.528Z,7.35
2022-11-02T19:23:48.567Z,6.38
2022-11-02T19:27:50.575Z,7.40
2022-11-02T19:31:52.613Z,9.98
2022-11-02T19:35:56.050Z,7.78
2022-11-02T19:39:58.146Z,7.05
2022-11-02T19:44:00.331Z,9.63
2022-11-02T19:48:02.593Z,9.65
2022-11-02T19:52:04.761Z,9.95
2022-11-02T19:56:11.278Z,8.32
2022-11-02T20:00:13.863Z,9.77
2022-11-02T20:04:15.904Z,8.70
2022-11-02T20:08:17.896Z,17.85
2022-11-02T20:12:19.898Z,15.95
2022-11-02T20:16:22.130Z,15.73
2022-11-02T20:20:24.374Z,15.55
2022-11-02T20:24:26.373Z,16.10
2022-11-02T20:28:28.673Z,19.50
2022-11-02T20:32:30.754Z,19.08
2022-11-02T20:36:32.870Z,16.23
2022-11-02T20:40:40.167Z,13.05
2022-11-02T20:44:49.020Z,10.45
2022-11-02T20:48:51.307Z,13.60
2022-11-02T20:52:55.275Z,9.20
2022-11-02T20:56:57.699Z,12.07
2022-11-02T21:00:59.797Z,8.27
2022-11-02T21:05:01.906Z,9.65
2022-11-02T21:09:09.068Z,8.13
2022-11-02T21:13:32.661Z,11.45
2022-11-02T21:17:35.023Z,7.13
2022-11-02T21:21:37.067Z,8.75
2022-11-02T21:25:39.173Z,7.60
2022-11-02T21:29:41.182Z,8.55
2022-11-02T21:33:44.656Z,7.80
2022-11-02T21:37:46.874Z,9.80
2022-11-02T21:41:48.920Z,7.03
2022-11-02T21:45:58.906Z,7.65
2022-11-02T21:50:02.253Z,7.32
2022-11-02T21:54:04.308Z,7.95
2022-11-02T21:58:06.623Z,7.75
2022-11-02T22:02:09.334Z,7.32
2022-11-02T22:06:11.771Z,6.85
2022-11-02T22:10:14.208Z,7.85
2022-11-02T22:14:16.245Z,8.02
2022-11-02T22:18:18.272Z,6.93
2022-11-02T22:22:20.322Z,11.57
2022-11-02T22:26:24.872Z,13.43
2022-11-02T22:30:29.336Z,10.48
2022-11-02T22:34:31.531Z,12.80
2022-11-02T22:38:48.804Z,14.40
2022-11-02T22:42:53.939Z,11.77
2022-11-02T22:46:55.982Z,11.80
2022-11-02T22:50:58.371Z,9.63
2022-11-02T22:55:00.406Z,14.77
2022-11-02T22:59:03.730Z,12.60
2022-11-02T23:03:06.011Z,10.18
2022-11-02T23:07:08.299Z,11.60
2022-11-02T23:11:22.577Z,7.72
2022-11-02T23:15:24.631Z,8.18
2022-11-02T23:19:29.467Z,8.88
2022-11-02T23:23:50.695Z,6.82
2022-11-02T23:28:16.799Z,7.35
2022-11-02T23:32:28.626Z,11.15
2022-11-02T23:36:30.654Z,12.90
2022-11-02T23:40:33.075Z,12.43
2022-11-02T23:44:35.125Z,10.98
2022-11-02T23:48:37.196Z,15.85
2022-11-02T23:52:57.934Z,12.90
2022-11-02T23:56:59.990Z,15.43
